Time;durP1;ratioP1;P1;durP2;ratioP2;P2;SDS_P1;SDS_P2;PMS_P1;PMS_P2;Temp;Humidity;BMP_temperature;BMP_pressure;BME280_temperature;BME280_humidity;BME280_pressure;Samples;Min_cycle;Max_cycle;Signal;HPM_P1;HPM_P2
2022/04/24 00:01:17;;;;;;;9.43;5.28;;;;;;;11.19;84.05;99410.81;1740702;80;21015;-68
2022/04/24 00:03:46;;;;;;;7.20;4.75;;;;;;;11.15;84.15;99409.59;1763405;80;21043;-69
2022/04/24 00:06:16;;;;;;;7.08;5.08;;;;;;;11.09;84.42;99412.17;1767572;80;20984;-65
2022/04/24 00:08:45;;;;;;;7.92;5.17;;;;;;;11.06;84.72;99420.84;1773700;81;20976;-67
2022/04/24 00:11:14;;;;;;;7.08;5.15;;;;;;;11.06;84.96;99426.86;1741079;81;20996;-64
2022/04/24 00:13:45;;;;;;;7.60;5.22;;;;;;;11.03;85.20;99418.52;1769569;80;21425;-65
2022/04/24 00:16:15;;;;;;;7.55;5.80;;;;;;;11.01;85.42;99415.16;1643721;85;21032;-66
2022/04/24 00:18:46;;;;;;;6.55;5.05;;;;;;;11.00;85.53;99410.75;1675579;85;21453;-67
2022/04/24 00:21:15;;;;;;;7.60;5.37;;;;;;;10.99;85.60;99419.19;1676568;85;21002;-66
2022/04/24 00:23:44;;;;;;;9.50;5.40;;;;;;;10.98;85.79;99400.54;1665984;85;21190;-67
2022/04/24 00:26:15;;;;;;;7.85;5.17;;;;;;;10.98;85.93;99407.92;1682529;85;21017;-66
2022/04/24 00:28:45;;;;;;;7.30;5.20;;;;;;;10.98;86.07;99406.55;1683408;85;21480;-67
2022/04/24 00:31:15;;;;;;;6.65;4.80;;;;;;;10.97;86.19;99412.56;1680900;85;21569;-67
2022/04/24 00:33:45;;;;;;;7.42;5.03;;;;;;;10.98;86.36;99407.92;1705362;80;20976;-67
2022/04/24 00:36:14;;;;;;;6.10;4.60;;;;;;;10.99;86.51;99409.07;1744034;80;21389;-66
2022/04/24 00:38:43;;;;;;;6.20;4.40;;;;;;;11.01;86.61;99400.09;1767327;80;21004;-67
2022/04/24 00:41:12;;;;;;;6.45;4.50;;;;;;;11.01;86.61;99400.09;1771971;80;21408;-68
2022/04/24 00:43:52;;;;;;;6.50;4.50;;;;;;;11.02;86.58;99389.44;1714198;82;21098;-68
2022/04/24 00:46:52;;;;;;;7.53;4.78;;;;;;;10.99;86.55;99389.05;1685915;81;21008;-67
2022/04/24 00:49:21;;;;;;;7.45;5.37;;;;;;;10.94;86.69;99392.46;1749451;80;21003;-71
2022/04/24 00:51:52;;;;;;;6.10;4.83;;;;;;;10.93;86.85;99388.05;1761400;80;21401;-68
2022/04/24 00:54:21;;;;;;;7.78;4.60;;;;;;;10.92;86.82;99395.95;1773275;80;21408;-66
2022/04/24 00:56:50;;;;;;;6.03;4.87;;;;;;;10.93;86.87;99403.65;1761779;80;21012;-67
2022/04/24 00:59:19;;;;;;;5.65;4.37;;;;;;;10.93;86.96;99409.97;1764932;80;21043;-68
2022/04/24 01:01:48;;;;;;;6.83;4.78;;;;;;;10.91;87.00;99408.52;1737838;81;21003;-67
2022/04/24 01:04:19;;;;;;;6.42;4.67;;;;;;;10.88;87.08;99411.70;1740151;81;21000;-66
2022/04/24 01:06:49;;;;;;;6.05;4.58;;;;;;;10.85;87.12;99407.51;1773675;80;20968;-67
2022/04/24 01:09:23;;;;;;;5.92;4.55;;;;;;;10.85;87.18;99409.41;1773337;80;21020;-67
2022/04/24 01:11:55;;;;;;;8.25;4.50;;;;;;;10.84;87.25;99404.46;1766183;80;21067;-68
2022/04/24 01:14:26;;;;;;;6.33;4.47;;;;;;;10.84;87.17;99403.09;1773927;81;21214;-66
2022/04/24 01:16:55;;;;;;;6.00;4.60;;;;;;;10.84;87.14;99405.83;1739021;81;21012;-67
2022/04/24 01:19:25;;;;;;;5.53;4.20;;;;;;;10.83;87.16;99406.05;1773778;80;21020;-67
2022/04/24 01:21:56;;;;;;;6.78;4.60;;;;;;;10.84;87.30;99401.72;1762891;80;21008;-68
2022/04/24 01:24:28;;;;;;;7.15;4.28;;;;;;;10.84;87.31;99400.88;1757952;81;21028;-67
2022/04/24 01:26:58;;;;;;;6.42;4.50;;;;;;;10.84;87.42;99400.34;1760353;81;20996;-66
2022/04/24 01:29:28;;;;;;;6.75;4.75;;;;;;;10.84;87.43;99400.34;1773115;80;21012;-67
2022/04/24 01:31:58;;;;;;;6.03;4.42;;;;;;;10.84;87.48;99398.14;1761651;80;21020;-68
2022/04/24 01:34:27;;;;;;;7.65;5.03;;;;;;;10.83;87.45;99404.16;1772917;80;21011;-67
2022/04/24 01:36:58;;;;;;;7.35;5.08;;;;;;;10.81;87.44;99402.17;1743789;80;21007;-67
2022/04/24 01:39:28;;;;;;;7.72;5.15;;;;;;;10.79;87.44;99401.02;1771244;80;21003;-67
2022/04/24 01:41:59;;;;;;;6.97;5.00;;;;;;;10.80;87.52;99404.59;1771985;81;21134;-68
2022/04/24 01:44:28;;;;;;;6.53;4.65;;;;;;;10.82;87.44;99403.01;1764507;80;20996;-67
2022/04/24 01:46:58;;;;;;;7.75;5.30;;;;;;;10.80;87.42;99399.13;1749522;80;21392;-68
2022/04/24 01:49:27;;;;;;;8.38;5.35;;;;;;;10.82;87.46;99399.73;1763020;80;21028;-67
2022/04/24 01:51:56;;;;;;;8.95;5.40;;;;;;;10.85;87.45;99396.55;1772508;80;21070;-68
2022/04/24 01:54:25;;;;;;;7.85;5.40;;;;;;;10.87;87.28;99407.28;1761128;81;21004;-67
2022/04/24 01:56:54;;;;;;;8.70;5.33;;;;;;;10.87;87.16;99404.55;1744773;81;21078;-68
2022/04/24 01:59:23;;;;;;;7.75;5.03;;;;;;;10.83;86.88;99404.16;1749773;80;21039;-68
2022/04/24 02:01:53;;;;;;;8.58;5.80;;;;;;;10.80;86.78;99412.82;1774081;81;20980;-66
2022/04/24 02:04:23;;;;;;;8.78;5.33;;;;;;;10.75;86.63;99409.38;1767023;80;21401;-67
2022/04/24 02:06:52;;;;;;;8.08;5.55;;;;;;;10.69;86.49;99412.17;1747723;81;21000;-67
2022/04/24 02:09:22;;;;;;;8.10;5.42;;;;;;;10.66;86.54;99408.51;1773602;80;20991;-67
2022/04/24 02:11:52;;;;;;;8.25;5.60;;;;;;;10.66;86.65;99407.98;1761954;80;20988;-68
2022/04/24 02:14:21;;;;;;;6.62;5.30;;;;;;;10.67;86.67;99408.81;1771125;80;20993;-68
2022/04/24 02:16:51;;;;;;;8.05;5.65;;;;;;;10.67;86.68;99406.08;1772984;80;21004;-68
2022/04/24 02:19:21;;;;;;;6.58;5.00;;;;;;;10.68;86.68;99411.86;1768904;80;20992;-66
2022/04/24 02:21:51;;;;;;;8.63;5.85;;;;;;;10.70;86.66;99416.59;1769119;80;21004;-69
2022/04/24 02:24:19;;;;;;;7.30;5.83;;;;;;;10.70;86.66;99422.91;1768743;80;21024;-67
2022/04/24 02:26:48;;;;;;;7.87;5.67;;;;;;;10.69;86.66;99429.45;1770666;80;21370;-66
2022/04/24 02:29:19;;;;;;;8.25;5.55;;;;;;;10.68;86.67;99428.30;1773767;81;21399;-68
2022/04/24 02:31:50;;;;;;;8.45;5.87;;;;;;;10.68;86.76;99431.04;1770672;80;20999;-68
2022/04/24 02:34:19;;;;;;;8.58;5.83;;;;;;;10.70;86.78;99430.29;1735534;80;21413;-68
2022/04/24 02:36:49;;;;;;;9.30;5.95;;;;;;;10.68;86.72;99432.41;1766947;80;20996;-66
2022/04/24 02:39:19;;;;;;;8.75;6.12;;;;;;;10.67;86.76;99428.83;1739523;81;21025;-68
2022/04/24 02:41:47;;;;;;;10.70;6.25;;;;;;;10.67;86.78;99429.36;1768326;80;20968;-68
2022/04/24 02:44:20;;;;;;;11.00;6.65;;;;;;;10.63;86.77;99438.55;1759187;80;21023;-67
2022/04/24 02:46:49;;;;;;;10.75;6.47;;;;;;;10.61;86.81;99437.10;1776363;80;20956;-68
2022/04/24 02:49:19;;;;;;;8.28;5.65;;;;;;;10.61;86.80;99438.47;1749343;80;21047;-69
2022/04/24 02:51:50;;;;;;;9.48;6.40;;;;;;;10.61;86.88;99442.58;1773944;80;21000;-67
2022/04/24 02:54:20;;;;;;;9.18;6.12;;;;;;;10.63;86.88;99448.67;1765849;81;20985;-69
2022/04/24 02:56:48;;;;;;;9.95;6.95;;;;;;;10.61;87.04;99448.05;1767201;80;21033;-68
2022/04/24 02:59:19;;;;;;;11.97;6.58;;;;;;;10.60;87.08;99460.07;1738206;81;20968;-68
2022/04/24 03:01:49;;;;;;;12.07;6.35;;;;;;;10.60;87.09;99465.02;1768904;81;20964;-68
2022/04/24 03:04:19;;;;;;;9.65;6.20;;;;;;;10.63;87.08;99471.95;1773451;80;21023;-67
2022/04/24 03:06:49;;;;;;;12.35;6.92;;;;;;;10.64;87.07;99469.00;1740218;81;21016;-68
2022/04/24 03:09:17;;;;;;;10.25;6.45;;;;;;;10.63;86.94;99475.53;1773355;80;21043;-67
2022/04/24 03:11:48;;;;;;;9.88;6.42;;;;;;;10.63;86.89;99474.70;1770766;80;21412;-66
2022/04/24 03:14:17;;;;;;;11.97;6.60;;;;;;;10.65;86.94;99482.16;1770409;80;20973;-67
2022/04/24 03:16:47;;;;;;;12.05;6.40;;;;;;;10.67;86.88;99486.36;1766648;80;21023;-68
2022/04/24 03:19:18;;;;;;;13.43;7.25;;;;;;;10.69;86.84;99486.14;1772220;80;21011;-68
2022/04/24 03:21:48;;;;;;;10.00;6.78;;;;;;;10.70;86.90;99486.45;1773584;80;21365;-68
2022/04/24 03:24:18;;;;;;;12.28;6.58;;;;;;;10.70;86.70;99490.56;1771029;80;21040;-67
2022/04/24 03:26:47;;;;;;;11.05;6.80;;;;;;;10.67;86.62;99497.85;1758459;81;21045;-68
2022/04/24 03:29:17;;;;;;;10.05;6.33;;;;;;;10.67;86.63;99503.33;1773615;80;21417;-67
2022/04/24 03:31:45;;;;;;;10.13;6.10;;;;;;;10.66;86.56;99508.50;1762778;80;21024;-68
2022/04/24 03:34:17;;;;;;;9.48;6.42;;;;;;;10.66;86.52;99511.23;1761903;80;21012;-68
2022/04/24 03:36:47;;;;;;;12.13;6.60;;;;;;;10.63;86.36;99515.78;1740697;81;20969;-69
2022/04/24 03:39:16;;;;;;;10.98;6.37;;;;;;;10.59;86.25;99520.02;1767413;80;21016;-67
2022/04/24 03:41:45;;;;;;;11.35;6.35;;;;;;;10.56;86.16;99519.09;1774125;80;21507;-69
2022/04/24 03:44:14;;;;;;;9.68;6.28;;;;;;;10.54;86.11;99519.31;1759318;81;21024;-68
2022/04/24 03:46:43;;;;;;;10.80;6.20;;;;;;;10.55;86.12;99518.78;1769330;80;20972;-69
2022/04/24 03:49:12;;;;;;;11.18;6.83;;;;;;;10.54;86.03;99526.16;1773313;80;21031;-65
2022/04/24 03:51:41;;;;;;;9.90;6.45;;;;;;;10.55;86.10;99527.00;1745083;80;21476;-68
2022/04/24 03:54:10;;;;;;;11.40;6.85;;;;;;;10.53;86.17;99526.38;1772794;80;20984;-68
2022/04/24 03:56:41;;;;;;;10.00;6.47;;;;;;;10.51;86.25;99529.34;1773349;80;21091;-67
2022/04/24 03:59:09;;;;;;;13.22;6.80;;;;;;;10.51;86.29;99524.39;1770933;80;21012;-66
2022/04/24 04:01:39;;;;;;;10.08;6.22;;;;;;;10.52;86.34;99531.55;1763187;80;21004;-68
2022/04/24 04:04:08;;;;;;;11.65;6.78;;;;;;;10.53;86.32;99534.59;1719264;81;21580;-68
2022/04/24 04:06:37;;;;;;;11.43;6.37;;;;;;;10.53;86.42;99535.97;1773793;80;21081;-66
2022/04/24 04:09:06;;;;;;;11.33;6.65;;;;;;;10.54;86.52;99537.64;1746237;81;21182;-68
2022/04/24 04:11:37;;;;;;;14.45;6.75;;;;;;;10.55;86.48;99536.59;1764405;80;21421;-67
2022/04/24 04:14:07;;;;;;;11.05;6.17;;;;;;;10.58;86.52;99544.37;1737552;80;20985;-66
2022/04/24 04:16:37;;;;;;;10.40;6.10;;;;;;;10.59;86.48;99548.78;1773950;80;21452;-67
2022/04/24 04:19:07;;;;;;;12.03;6.45;;;;;;;10.60;86.43;99543.63;1767568;80;21448;-67
2022/04/24 04:21:37;;;;;;;10.85;6.55;;;;;;;10.58;86.28;99547.11;1769859;80;21015;-66
2022/04/24 04:24:08;;;;;;;10.80;6.70;;;;;;;10.56;86.25;99554.70;1773456;81;21428;-66
2022/04/24 04:26:37;;;;;;;10.03;6.15;;;;;;;10.55;86.27;99559.87;1765754;80;21012;-67
2022/04/24 04:29:06;;;;;;;10.20;6.45;;;;;;;10.53;86.11;99560.62;1775235;80;21042;-65
2022/04/24 04:31:35;;;;;;;10.00;6.20;;;;;;;10.52;85.79;99563.05;1773838;80;21000;-68
2022/04/24 04:34:06;;;;;;;9.63;5.87;;;;;;;10.48;85.63;99566.22;1774292;80;21019;-67
2022/04/24 04:36:36;;;;;;;9.38;5.92;;;;;;;10.45;85.26;99561.17;1767408;80;21429;-68
2022/04/24 04:39:05;;;;;;;8.55;6.03;;;;;;;10.41;84.92;99571.41;1763995;80;21016;-66
2022/04/24 04:41:33;;;;;;;8.78;5.33;;;;;;;10.37;84.45;99571.50;1772516;80;21000;-69
2022/04/24 04:44:03;;;;;;;10.53;5.90;;;;;;;10.35;84.22;99577.20;1766763;80;21004;-68
2022/04/24 04:46:31;;;;;;;7.17;4.75;;;;;;;10.36;84.05;99578.03;1743886;80;21404;-66
2022/04/24 04:49:02;;;;;;;9.40;5.10;;;;;;;10.36;83.69;99585.72;1767482;79;20991;-70
2022/04/24 04:51:37;;;;;;;6.60;4.30;;;;;;;10.39;82.93;99583.92;1830094;77;22628;-68
2022/04/24 04:54:07;;;;;;;6.92;4.53;;;;;;;10.32;82.32;99585.84;1724282;83;21204;-67
2022/04/24 04:56:37;;;;;;;5.80;3.60;;;;;;;10.35;81.99;99595.52;1740069;82;21119;-68
2022/04/24 04:59:07;;;;;;;6.53;4.50;;;;;;;10.36;81.05;99595.84;1724331;83;21111;-68
2022/04/24 05:01:38;;;;;;;5.00;3.83;;;;;;;10.36;80.63;99591.20;1713467;82;21175;-67
2022/04/24 05:04:08;;;;;;;8.95;4.17;;;;;;;10.41;80.18;99597.43;1724221;83;21102;-67
2022/04/24 05:06:38;;;;;;;7.10;4.40;;;;;;;10.44;79.50;99597.84;1740062;82;21112;-67
2022/04/24 05:09:09;;;;;;;5.90;3.50;;;;;;;10.51;79.43;99602.45;1724447;83;21142;-69
2022/04/24 05:11:39;;;;;;;4.95;3.35;;;;;;;10.63;79.15;99598.80;1740459;82;21099;-67
2022/04/24 05:14:10;;;;;;;6.33;3.30;;;;;;;10.78;78.35;99602.63;1723778;83;21771;-68
2022/04/24 05:16:39;;;;;;;4.08;3.25;;;;;;;10.89;76.36;99603.31;1740117;82;21578;-68
2022/04/24 05:19:10;;;;;;;5.25;3.42;;;;;;;10.99;75.91;99608.31;1723912;83;21566;-67
2022/04/24 05:21:42;;;;;;;5.72;3.60;;;;;;;11.04;74.98;99609.34;1739898;82;21608;-66
2022/04/24 05:24:13;;;;;;;4.45;3.02;;;;;;;11.11;74.45;99615.65;1724222;83;21114;-67
2022/04/24 05:26:44;;;;;;;4.42;3.30;;;;;;;11.18;73.93;99612.86;1740055;82;21095;-67
2022/04/24 05:29:15;;;;;;;4.67;2.92;;;;;;;11.26;73.62;99618.61;1724133;83;21090;-68
2022/04/24 05:31:46;;;;;;;5.92;3.52;;;;;;;11.32;72.74;99619.10;1739836;82;21535;-69
2022/04/24 05:34:17;;;;;;;5.55;3.58;;;;;;;11.29;71.92;99608.05;1724179;83;21181;-68
2022/04/24 05:36:46;;;;;;;4.15;3.27;;;;;;;11.27;71.88;99603.31;1740035;82;21262;-67
2022/04/24 05:39:16;;;;;;;3.87;3.20;;;;;;;11.26;72.06;99613.13;1724179;83;21154;-68
2022/04/24 05:41:46;;;;;;;5.17;3.42;;;;;;;11.28;72.23;99605.52;1713850;82;21498;-68
2022/04/24 05:44:16;;;;;;;4.12;3.30;;;;;;;11.28;71.95;99604.99;1724560;83;21102;-67
2022/04/24 05:46:44;;;;;;;4.25;3.22;;;;;;;11.27;71.87;99615.65;1739990;82;21574;-68
2022/04/24 05:49:15;;;;;;;4.97;2.92;;;;;;;11.25;71.41;99621.89;1724163;83;21642;-68
2022/04/24 05:51:45;;;;;;;6.75;3.20;;;;;;;11.22;70.42;99617.38;1730522;82;21147;-67
2022/04/24 05:54:15;;;;;;;4.55;3.15;;;;;;;11.16;70.05;99615.52;1764214;80;21659;-67
2022/04/24 05:56:46;;;;;;;4.72;3.30;;;;;;;11.14;70.00;99619.02;1783298;80;21147;-68
2022/04/24 05:59:16;;;;;;;4.53;3.12;;;;;;;11.11;69.78;99628.52;1783513;80;21546;-68
2022/04/24 06:01:46;;;;;;;6.55;3.62;;;;;;;11.11;69.39;99623.88;1783048;80;21547;-67
2022/04/24 06:04:15;;;;;;;5.90;3.00;;;;;;;11.09;68.54;99631.48;1782846;80;21504;-68
2022/04/24 06:06:45;;;;;;;5.40;3.40;;;;;;;11.10;68.70;99629.58;1783061;80;21162;-67
2022/04/24 06:09:18;;;;;;;6.53;3.90;;;;;;;11.16;69.12;99630.59;1782797;80;21556;-66
2022/04/24 06:11:48;;;;;;;5.17;3.65;;;;;;;11.23;68.85;99632.77;1782931;80;21094;-67
2022/04/24 06:14:19;;;;;;;5.17;3.75;;;;;;;11.27;67.47;99628.52;1783227;79;21107;-68
2022/04/24 06:16:47;;;;;;;6.00;3.90;;;;;;;11.29;66.63;99636.84;1783123;80;21549;-67
2022/04/24 06:19:18;;;;;;;5.08;4.15;;;;;;;11.30;66.28;99633.56;1783212;80;21158;-66
2022/04/24 06:21:49;;;;;;;6.15;4.33;;;;;;;11.28;64.70;99635.16;1782998;80;21087;-67
2022/04/24 06:24:19;;;;;;;6.22;3.47;;;;;;;11.27;64.34;99629.89;1782832;80;21119;-67
2022/04/24 06:26:48;;;;;;;5.03;3.37;;;;;;;11.30;64.50;99637.68;1783016;79;21107;-66
2022/04/24 06:29:18;;;;;;;6.95;3.83;;;;;;;11.35;64.59;99640.59;1782728;79;21547;-68
2022/04/24 06:31:47;;;;;;;4.97;4.03;;;;;;;11.41;64.67;99632.32;1782725;80;21615;-69
2022/04/24 06:34:18;;;;;;;6.15;4.45;;;;;;;11.56;64.86;99632.53;1782777;80;21088;-67
2022/04/24 06:36:49;;;;;;;6.10;4.25;;;;;;;11.82;64.41;99641.14;1783004;80;21147;-66
2022/04/24 06:39:18;;;;;;;5.87;4.28;;;;;;;12.04;63.81;99642.41;1783304;80;21147;-68
2022/04/24 06:41:47;;;;;;;11.43;5.08;;;;;;;12.28;62.37;99646.19;1783008;80;21206;-66
2022/04/24 06:44:20;;;;;;;7.83;5.08;;;;;;;12.56;61.79;99635.55;1782817;80;21203;-68
2022/04/24 06:46:49;;;;;;;6.60;4.42;;;;;;;12.85;61.18;99642.16;1782808;80;21154;-67
2022/04/24 06:49:19;;;;;;;6.78;4.75;;;;;;;13.14;60.65;99654.29;1728647;83;21167;-67
2022/04/24 06:51:48;;;;;;;6.12;4.90;;;;;;;13.33;59.14;99649.61;1728660;83;21159;-70
2022/04/24 06:54:17;;;;;;;5.92;4.60;;;;;;;13.31;58.54;99649.00;1728879;83;21096;-66
2022/04/24 06:56:49;;;;;;;6.20;4.90;;;;;;;13.40;58.44;99657.77;1728657;82;21139;-68
2022/04/24 06:59:19;;;;;;;5.28;4.35;;;;;;;13.60;56.82;99653.63;1728692;83;21123;-66
2022/04/24 07:01:48;;;;;;;7.35;4.67;;;;;;;13.76;55.86;99654.89;1728933;83;21116;-67
2022/04/24 07:04:19;;;;;;;6.40;4.70;;;;;;;13.80;54.84;99658.02;1671462;86;21135;-68
2022/04/24 07:06:48;;;;;;;6.95;5.20;;;;;;;13.81;54.13;99658.31;1683772;83;21599;-67
2022/04/24 07:09:17;;;;;;;6.62;4.83;;;;;;;13.83;54.94;99649.28;1653990;87;21182;-66
2022/04/24 07:11:48;;;;;;;5.00;4.22;;;;;;;13.92;55.17;99645.94;1728593;83;21167;-67
2022/04/24 07:14:18;;;;;;;5.85;4.65;;;;;;;14.12;54.91;99649.72;1653905;87;21607;-67
2022/04/24 07:16:48;;;;;;;6.05;4.92;;;;;;;14.37;54.26;99646.75;1728667;83;21152;-68
2022/04/24 07:19:20;;;;;;;6.70;5.17;;;;;;;14.64;53.81;99647.09;1653969;87;21135;-67
2022/04/24 07:21:50;;;;;;;6.58;5.53;;;;;;;14.91;52.70;99644.63;1741485;80;21107;-66
2022/04/24 07:24:19;;;;;;;6.15;5.12;;;;;;;15.18;51.69;99649.06;1782746;80;21158;-67
2022/04/24 07:26:48;;;;;;;6.20;4.80;;;;;;;15.29;51.86;99648.72;1782761;79;21582;-68
2022/04/24 07:29:19;;;;;;;7.60;5.40;;;;;;;15.46;50.86;99650.98;1782771;80;21163;-67
2022/04/24 07:31:48;;;;;;;5.95;5.00;;;;;;;15.42;49.92;99658.91;1782681;80;21150;-67
2022/04/24 07:34:18;;;;;;;8.60;5.87;;;;;;;15.31;49.08;99652.07;1782812;80;21115;-67
2022/04/24 07:36:48;;;;;;;7.60;5.30;;;;;;;15.12;49.54;99659.71;1783049;80;21068;-65
2022/04/24 07:39:17;;;;;;;6.15;4.60;;;;;;;15.04;49.64;99658.72;1763114;80;21547;-67
2022/04/24 07:41:48;;;;;;;7.03;5.00;;;;;;;15.14;48.88;99657.00;1782692;80;21095;-66
2022/04/24 07:44:18;;;;;;;5.53;4.67;;;;;;;15.24;47.41;99653.60;1764019;80;21115;-68
2022/04/24 07:46:47;;;;;;;5.97;4.83;;;;;;;15.21;47.56;99670.11;1782821;79;21182;-68
2022/04/24 07:49:17;;;;;;;6.25;4.92;;;;;;;15.22;47.11;99666.81;1782968;80;21532;-67
2022/04/24 07:51:46;;;;;;;8.30;5.28;;;;;;;15.26;46.27;99666.61;1777055;80;21539;-66
2022/04/24 07:54:17;;;;;;;6.33;4.72;;;;;;;15.21;46.55;99668.73;1774482;81;21088;-67
2022/04/24 07:56:47;;;;;;;7.72;5.58;;;;;;;15.29;46.58;99671.64;1774731;81;21100;-66
2022/04/24 07:59:16;;;;;;;6.35;5.03;;;;;;;15.33;46.22;99665.92;1701920;84;21229;-67
2022/04/24 08:01:51;;;;;;;7.17;4.80;;;;;;;15.43;45.68;99668.88;1701694;84;21147;-67
2022/04/24 08:04:19;;;;;;;6.33;4.67;;;;;;;15.53;45.53;99659.95;1701871;84;21112;-65
2022/04/24 08:06:48;;;;;;;5.17;4.25;;;;;;;15.63;45.17;99669.86;1702054;84;21318;-67
2022/04/24 08:09:19;;;;;;;6.97;4.83;;;;;;;15.71;45.13;99661.70;1628183;88;21693;-67
2022/04/24 08:11:48;;;;;;;6.00;4.75;;;;;;;15.83;44.13;99666.06;1701783;84;21519;-67
2022/04/24 08:14:19;;;;;;;5.33;4.12;;;;;;;16.00;43.45;99659.71;1628243;88;21611;-68
2022/04/24 08:16:51;;;;;;;4.67;3.47;;;;;;;16.25;43.29;99660.66;1641417;84;21580;-68
2022/04/24 08:19:21;;;;;;;4.22;3.20;;;;;;;16.49;40.94;99663.00;1701794;84;21150;-65
2022/04/24 08:21:52;;;;;;;6.62;3.45;;;;;;;16.71;41.24;99664.44;1701743;83;21539;-68
2022/04/24 08:24:21;;;;;;;3.65;3.15;;;;;;;17.00;39.99;99662.36;1627943;88;21150;-67
2022/04/24 08:26:52;;;;;;;3.52;3.05;;;;;;;17.23;38.88;99664.02;1701932;84;21697;-67
2022/04/24 08:29:22;;;;;;;3.62;3.10;;;;;;;17.39;37.58;99667.79;1628144;88;21146;-68
2022/04/24 08:31:52;;;;;;;3.70;3.08;;;;;;;17.47;37.34;99660.95;1701988;84;21127;-67
2022/04/24 08:34:21;;;;;;;3.90;3.02;;;;;;;17.60;37.96;99659.17;1701960;84;21172;-67
2022/04/24 08:36:53;;;;;;;3.85;3.27;;;;;;;17.66;37.18;99661.77;1702027;84;21131;-67
2022/04/24 08:39:22;;;;;;;4.50;3.15;;;;;;;17.79;37.36;99661.89;1702134;84;21615;-67
2022/04/24 08:41:52;;;;;;;5.37;3.40;;;;;;;18.00;37.29;99665.13;1681856;84;21515;-68
2022/04/24 08:44:22;;;;;;;5.47;3.22;;;;;;;18.24;37.57;99657.85;1774593;81;21080;-67
2022/04/24 08:46:52;;;;;;;3.37;2.70;;;;;;;18.51;36.55;99666.91;1774537;81;21571;-69
2022/04/24 08:49:22;;;;;;;4.47;3.60;;;;;;;18.72;36.09;99667.06;1774502;81;21524;-66
2022/04/24 08:51:51;;;;;;;3.20;2.75;;;;;;;18.75;34.57;99664.59;1774670;80;21111;-68
2022/04/24 08:54:22;;;;;;;3.17;2.40;;;;;;;18.56;34.97;99653.62;1774492;81;21068;-68
2022/04/24 08:56:51;;;;;;;4.10;2.62;;;;;;;18.51;35.56;99664.14;1774721;81;21623;-68
2022/04/24 08:59:21;;;;;;;3.05;2.75;;;;;;;18.55;35.07;99668.05;1774460;81;21170;-67
2022/04/24 09:01:51;;;;;;;3.75;2.50;;;;;;;18.41;34.54;99659.91;1774417;81;21084;-68
2022/04/24 09:04:23;;;;;;;5.08;3.00;;;;;;;18.22;34.64;99665.05;1774679;79;21131;-68
2022/04/24 09:06:58;;;;;;;3.37;2.83;;;;;;;18.06;35.24;99666.00;1774795;79;21588;-68
2022/04/24 09:09:31;;;;;;;3.47;2.90;;;;;;;17.81;35.12;99664.39;1763781;81;22027;-66
2022/04/24 09:12:13;;;;;;;5.12;3.22;;;;;;;17.47;35.61;99658.18;1774600;80;21112;-68
2022/04/24 09:14:48;;;;;;;3.45;2.67;;;;;;;17.25;36.18;99661.83;1774494;81;21112;-67
2022/04/24 09:17:21;;;;;;;3.15;2.55;;;;;;;17.10;36.39;99661.64;1763866;81;21137;-67
2022/04/24 09:19:51;;;;;;;4.75;3.15;;;;;;;17.01;36.25;99656.27;1774397;81;21600;-67
2022/04/24 09:22:20;;;;;;;3.83;2.90;;;;;;;16.84;36.79;99672.08;1774607;81;21536;-68
2022/04/24 09:24:57;;;;;;;4.40;3.20;;;;;;;16.71;36.68;99668.59;1774559;81;21108;-66
2022/04/24 09:27:32;;;;;;;3.02;2.62;;;;;;;16.61;37.07;99671.73;1763697;81;21151;-67
2022/04/24 09:30:07;;;;;;;3.45;2.65;;;;;;;16.57;37.75;99667.80;1763806;81;21147;-67
2022/04/24 09:32:50;;;;;;;3.35;2.60;;;;;;;16.59;37.47;99675.30;1774496;79;21100;-66
2022/04/24 09:35:32;;;;;;;3.42;2.83;;;;;;;16.52;37.77;99665.80;1763748;81;21198;-65
2022/04/24 09:38:17;;;;;;;3.05;2.50;;;;;;;16.47;38.33;99672.09;1774558;81;21123;-68
2022/04/24 09:40:49;;;;;;;4.95;3.40;;;;;;;16.52;38.44;99675.48;1764144;81;21183;-65
2022/04/24 09:43:20;;;;;;;6.87;3.30;;;;;;;16.46;37.85;99675.11;1774757;81;21190;-68
2022/04/24 09:45:53;;;;;;;4.25;2.80;;;;;;;16.33;38.84;99669.94;1774700;80;21552;-67
2022/04/24 09:48:25;;;;;;;3.67;2.62;;;;;;;16.37;38.89;99678.02;1701748;84;21127;-66
2022/04/24 09:50:55;;;;;;;3.00;2.20;;;;;;;16.46;38.84;99682.02;1701625;84;21139;-66
2022/04/24 09:53:25;;;;;;;3.65;2.50;;;;;;;16.49;38.37;99674.61;1627337;87;21131;-67
2022/04/24 09:55:55;;;;;;;3.62;2.60;;;;;;;16.53;38.41;99684.61;1699617;84;21709;-68
2022/04/24 09:58:24;;;;;;;3.27;2.70;;;;;;;16.53;38.38;99684.06;1627599;88;21178;-67
2022/04/24 10:00:53;;;;;;;3.05;2.62;;;;;;;16.49;38.44;99686.50;1699570;84;21602;-68
2022/04/24 10:03:25;;;;;;;5.97;3.00;;;;;;;16.47;38.79;99698.91;1627486;88;21203;-66
2022/04/24 10:05:55;;;;;;;4.03;2.70;;;;;;;16.38;38.93;99684.67;1719824;80;21122;-68
2022/04/24 10:08:24;;;;;;;2.87;2.40;;;;;;;16.31;39.22;99687.33;1763686;80;21579;-68
2022/04/24 10:10:53;;;;;;;3.55;2.80;;;;;;;16.30;39.67;99689.25;1782816;80;21104;-66
2022/04/24 10:13:24;;;;;;;4.80;2.85;;;;;;;16.32;39.49;99691.77;1728955;82;21575;-68
2022/04/24 10:16:06;;;;;;;6.22;2.98;;;;;;;16.36;39.58;99686.02;1728962;83;21179;-68
2022/04/24 10:19:27;;;;;;;3.08;2.55;;;;;;;16.37;39.76;99685.77;1653572;87;21135;-66
2022/04/24 10:22:07;;;;;;;3.50;2.67;;;;;;;16.39;39.48;99684.13;1728247;83;21155;-67
2022/04/24 10:24:42;;;;;;;3.67;2.92;;;;;;;16.40;40.18;99686.64;1728783;83;21113;-67
2022/04/24 10:27:13;;;;;;;3.90;3.05;;;;;;;16.41;40.17;99687.48;1728636;83;21278;-66
2022/04/24 10:29:59;;;;;;;4.20;3.00;;;;;;;16.42;40.26;99687.77;1728775;83;21297;-67
2022/04/24 10:32:32;;;;;;;5.08;3.42;;;;;;;16.47;40.39;99691.99;1776033;80;21151;-65
2022/04/24 10:35:16;;;;;;;3.85;3.20;;;;;;;16.48;40.43;99686.76;1782553;80;21163;-67
2022/04/24 10:37:47;;;;;;;3.58;2.90;;;;;;;16.47;40.53;99687.30;1782798;80;21532;-69
2022/04/24 10:40:24;;;;;;;6.05;3.40;;;;;;;16.49;40.65;99696.73;1782685;79;21435;-67
2022/04/24 10:42:52;;;;;;;3.70;2.67;;;;;;;16.54;40.97;99699.57;1738703;82;21151;-67
2022/04/24 10:45:21;;;;;;;4.47;2.83;;;;;;;16.58;40.09;99692.98;1673150;86;21199;-67
2022/04/24 10:47:55;;;;;;;4.50;3.20;;;;;;;16.55;39.61;99704.55;1672847;86;21179;-67
2022/04/24 10:50:25;;;;;;;4.97;3.45;;;;;;;16.51;39.79;99690.40;1672943;86;21568;-69
2022/04/24 10:52:55;;;;;;;4.45;3.30;;;;;;;16.47;39.97;99688.69;1669029;85;21143;-67
2022/04/24 10:55:27;;;;;;;4.30;2.92;;;;;;;16.37;40.19;99695.45;1667902;86;21199;-67
2022/04/24 10:58:00;;;;;;;4.12;3.27;;;;;;;16.32;40.62;99698.67;1667958;85;21139;-67
2022/04/24 11:00:38;;;;;;;3.83;2.95;;;;;;;16.35;40.75;99692.64;1679198;84;21192;-69
2022/04/24 11:03:13;;;;;;;4.50;3.22;;;;;;;16.36;40.92;99697.92;1774559;79;21147;-68
2022/04/24 11:05:46;;;;;;;3.70;2.87;;;;;;;16.37;40.92;99691.30;1701709;83;21115;-67
2022/04/24 11:08:21;;;;;;;3.80;3.10;;;;;;;16.40;41.01;99702.39;1678785;84;21328;-67
2022/04/24 11:10:50;;;;;;;4.00;3.08;;;;;;;16.44;40.93;99686.97;1628035;88;21155;-68
2022/04/24 11:13:23;;;;;;;4.55;3.20;;;;;;;16.41;41.29;99701.30;1607141;89;21164;-68
2022/04/24 11:15:53;;;;;;;5.15;3.33;;;;;;;16.41;41.56;99700.76;1607078;89;21200;-70
2022/04/24 11:18:26;;;;;;;3.92;3.10;;;;;;;16.34;40.34;99691.80;1607103;88;21137;-66
2022/04/24 11:21:05;;;;;;;4.12;3.40;;;;;;;16.25;40.70;99691.06;1607113;89;21718;-67
2022/04/24 11:23:37;;;;;;;3.55;2.90;;;;;;;16.18;41.08;99683.78;1632169;86;21617;-67
2022/04/24 11:26:09;;;;;;;4.60;3.22;;;;;;;16.12;41.50;99683.95;1673654;86;21121;-68
2022/04/24 11:28:49;;;;;;;3.83;3.25;;;;;;;16.10;41.83;99696.64;1673715;86;21141;-66
2022/04/24 11:31:21;;;;;;;4.08;3.20;;;;;;;16.17;41.78;99690.40;1717559;81;21147;-69
2022/04/24 11:34:00;;;;;;;4.60;3.30;;;;;;;16.20;41.43;99690.98;1774389;81;21167;-68
2022/04/24 11:36:33;;;;;;;4.33;2.77;;;;;;;16.20;41.79;99690.98;1764448;81;21138;-68
2022/04/24 11:39:05;;;;;;;3.72;3.00;;;;;;;16.27;41.72;99686.99;1774564;81;21155;-67
2022/04/24 11:41:35;;;;;;;3.72;2.90;;;;;;;16.33;41.22;99683.77;1691531;83;21159;-66
2022/04/24 11:50:14;;;;;;;5.08;3.37;;;;;;;16.23;42.27;99684.41;1691628;83;21154;-67
2022/04/24 11:52:51;;;;;;;4.10;3.17;;;;;;;16.28;41.87;99683.14;1726013;82;21159;-68
2022/04/24 11:55:21;;;;;;;3.50;3.10;;;;;;;16.36;41.33;99688.78;1729021;83;21563;-67